Chena Hot Springs, Alaska
Current Conditions -  °F | °C
As of 8:58 PM on Tuesday 25 Nov 2014 (Local Time) from PAEI Reporting Station
Overcast Overcast  
Wind Chill: 14°   Ceiling: 3000
Heat Index: 14°   Visibility: 10mi
Dew Point: 11°   Wind: 0mph
Humidity: 86%   Direction: NA
Pressure: 30.35"   Gusts: NA
Location:  65.05°N, 146.06°W
Report Text: PAEI 260558Z 00000KT 10SM SCT018 OVC030 M10/M12 A3035 RMK AO2A SNE0524 SLP293 P0000 60000 T10981117 11095 21100 52017 $
Loading
Personal Weather Stations






























Interactive Weather Map New forecast layout! Learn more

10-Day Weather Forecast

Advertisements
Track Severe Weather on mobile